OIAH

Gachsaran Airport

Airport
ICAO code
OIAH
IATA Code
GCH
Summary
ICAO Region
MID
ICAO Territory
Location

Sharak-E-Hedyat, Kohgiluyeh and Boer-Ahmad Province

Serving
Gachsaran
Elevation
2414 ft
Coordinates
30° 20' 10" N , 50° 49' 50" E
KCC
Metar
Observation
OIAH 070400Z 11010KT 9999 FEW035 BKN090 13/09 Q1020
Station
Gach Saran Du Gunbadan
Date/Time
2022-12-07 04:00:00
Wind direction
110°
Wind speed
10 kts
Lowest cloud amount
few clouds
Temperature
13°C
Dew point
9°C
Humidity
76%
QNH
1020 hPa
Weather condition
n/a

Airport serving Gachsaran, Iran,

Climatology

Warm Desert climate (Köppen climate classification BWh).

Runways

Designator Length Width Surface Rops
12/30 1850 45 ASP No/No

Airport map

Aerial View

SKYbrary Partners:

Safety knowledge contributed by: